sensor_id;sensor_type;location;lat;lon;timestamp;temperature;humidity
16289;DHT22;26089;43.538;5.250;2023-05-13T00:01:12;11.30;99.90
16289;DHT22;26089;43.538;5.250;2023-05-13T00:03:39;11.30;99.90
16289;DHT22;26089;43.538;5.250;2023-05-13T00:06:06;11.00;99.90
16289;DHT22;26089;43.538;5.250;2023-05-13T00:08:34;11.20;99.90
16289;DHT22;26089;43.538;5.250;2023-05-13T00:11:02;11.20;99.90
16289;DHT22;26089;43.538;5.250;2023-05-13T00:13:28;11.10;99.90
16289;DHT22;26089;43.538;5.250;2023-05-13T00:15:56;11.10;99.90
16289;DHT22;26089;43.538;5.250;2023-05-13T00:18:23;11.10;99.90
16289;DHT22;26089;43.538;5.250;2023-05-13T00:20:50;11.10;99.90
16289;DHT22;26089;43.538;5.250;2023-05-13T00:23:17;11.10;99.90
16289;DHT22;26089;43.538;5.250;2023-05-13T00:25:46;11.10;99.90
16289;DHT22;26089;43.538;5.250;2023-05-13T00:28:12;11.00;99.90
16289;DHT22;26089;43.538;5.250;2023-05-13T00:30:40;11.00;99.90
16289;DHT22;26089;43.538;5.250;2023-05-13T00:33:08;11.50;99.90
16289;DHT22;26089;43.538;5.250;2023-05-13T00:35:35;11.00;99.90
16289;DHT22;26089;43.538;5.250;2023-05-13T00:38:02;10.90;99.90
16289;DHT22;26089;43.538;5.250;2023-05-13T00:40:29;10.90;99.90
16289;DHT22;26089;43.538;5.250;2023-05-13T00:42:57;10.90;99.90
16289;DHT22;26089;43.538;5.250;2023-05-13T00:45:24;10.90;99.90
16289;DHT22;26089;43.538;5.250;2023-05-13T00:47:52;10.90;99.90
16289;DHT22;26089;43.538;5.250;2023-05-13T00:50:19;10.80;99.90
16289;DHT22;26089;43.538;5.250;2023-05-13T00:52:47;10.80;99.90
16289;DHT22;26089;43.538;5.250;2023-05-13T00:55:15;10.80;99.90
16289;DHT22;26089;43.538;5.250;2023-05-13T00:57:42;10.70;99.90
16289;DHT22;26089;43.538;5.250;2023-05-13T01:00:11;10.80;99.90
16289;DHT22;26089;43.538;5.250;2023-05-13T01:02:44;11.00;99.90
16289;DHT22;26089;43.538;5.250;2023-05-13T01:05:19;11.00;99.90
16289;DHT22;26089;43.538;5.250;2023-05-13T01:07:55;11.10;99.90
16289;DHT22;26089;43.538;5.250;2023-05-13T01:10:31;11.10;99.90
16289;DHT22;26089;43.538;5.250;2023-05-13T01:13:04;11.10;99.90
16289;DHT22;26089;43.538;5.250;2023-05-13T01:15:39;11.00;99.90
16289;DHT22;26089;43.538;5.250;2023-05-13T01:18:14;11.00;99.90
16289;DHT22;26089;43.538;5.250;2023-05-13T01:20:41;11.00;99.90
16289;DHT22;26089;43.538;5.250;2023-05-13T01:23:10;11.00;99.90
16289;DHT22;26089;43.538;5.250;2023-05-13T01:25:38;11.00;99.90
16289;DHT22;26089;43.538;5.250;2023-05-13T01:28:06;11.00;99.90
16289;DHT22;26089;43.538;5.250;2023-05-13T01:30:33;11.00;99.90
16289;DHT22;26089;43.538;5.250;2023-05-13T01:33:01;11.00;99.90
16289;DHT22;26089;43.538;5.250;2023-05-13T01:35:30;11.00;99.90
16289;DHT22;26089;43.538;5.250;2023-05-13T01:37:58;10.90;99.90
16289;DHT22;26089;43.538;5.250;2023-05-13T01:40:28;10.90;99.90
16289;DHT22;26089;43.538;5.250;2023-05-13T01:42:55;10.90;99.90
16289;DHT22;26089;43.538;5.250;2023-05-13T01:45:22;10.90;99.90
16289;DHT22;26089;43.538;5.250;2023-05-13T01:47:49;10.90;99.90
16289;DHT22;26089;43.538;5.250;2023-05-13T01:50:16;10.90;99.90
16289;DHT22;26089;43.538;5.250;2023-05-13T01:52:43;10.90;99.90
16289;DHT22;26089;43.538;5.250;2023-05-13T01:55:10;10.90;99.90
16289;DHT22;26089;43.538;5.250;2023-05-13T01:57:38;10.80;99.90
16289;DHT22;26089;43.538;5.250;2023-05-13T02:00:06;10.90;99.90
16289;DHT22;26089;43.538;5.250;2023-05-13T02:02:33;10.90;99.90
16289;DHT22;26089;43.538;5.250;2023-05-13T02:05:00;10.90;99.90
16289;DHT22;26089;43.538;5.250;2023-05-13T02:07:27;10.90;99.90
16289;DHT22;26089;43.538;5.250;2023-05-13T02:09:54;10.80;99.90
16289;DHT22;26089;43.538;5.250;2023-05-13T02:12:24;10.80;99.90
16289;DHT22;26089;43.538;5.250;2023-05-13T02:14:53;10.80;99.90
16289;DHT22;26089;43.538;5.250;2023-05-13T02:17:20;10.90;99.90
16289;DHT22;26089;43.538;5.250;2023-05-13T02:19:47;11.00;99.90
16289;DHT22;26089;43.538;5.250;2023-05-13T02:22:14;10.80;99.90
16289;DHT22;26089;43.538;5.250;2023-05-13T02:24:41;10.90;99.90
16289;DHT22;26089;43.538;5.250;2023-05-13T02:27:08;10.90;99.90
16289;DHT22;26089;43.538;5.250;2023-05-13T02:29:37;10.70;99.90
16289;DHT22;26089;43.538;5.250;2023-05-13T02:32:06;10.90;99.90
16289;DHT22;26089;43.538;5.250;2023-05-13T02:34:33;10.80;99.90
16289;DHT22;26089;43.538;5.250;2023-05-13T02:37:01;10.80;99.90
16289;DHT22;26089;43.538;5.250;2023-05-13T02:39:28;10.90;99.90
16289;DHT22;26089;43.538;5.250;2023-05-13T02:41:55;10.90;99.90
16289;DHT22;26089;43.538;5.250;2023-05-13T02:44:22;10.80;99.90
16289;DHT22;26089;43.538;5.250;2023-05-13T02:46:49;11.00;99.90
16289;DHT22;26089;43.538;5.250;2023-05-13T02:49:18;10.80;99.90
16289;DHT22;26089;43.538;5.250;2023-05-13T02:51:45;11.70;99.90
16289;DHT22;26089;43.538;5.250;2023-05-13T02:54:12;10.90;99.90
16289;DHT22;26089;43.538;5.250;2023-05-13T02:56:39;11.10;99.90
16289;DHT22;26089;43.538;5.250;2023-05-13T02:59:06;11.80;99.90
16289;DHT22;26089;43.538;5.250;2023-05-13T03:01:33;11.10;99.90
16289;DHT22;26089;43.538;5.250;2023-05-13T03:04:00;11.10;99.90
16289;DHT22;26089;43.538;5.250;2023-05-13T03:06:29;11.10;99.90
16289;DHT22;26089;43.538;5.250;2023-05-13T03:08:56;11.10;99.90
16289;DHT22;26089;43.538;5.250;2023-05-13T03:11:23;11.10;99.90
16289;DHT22;26089;43.538;5.250;2023-05-13T03:13:51;11.10;99.90
16289;DHT22;26089;43.538;5.250;2023-05-13T03:16:18;11.10;99.90
16289;DHT22;26089;43.538;5.250;2023-05-13T03:18:45;11.10;99.90
16289;DHT22;26089;43.538;5.250;2023-05-13T03:21:12;11.10;99.90
16289;DHT22;26089;43.538;5.250;2023-05-13T03:23:41;11.00;99.90
16289;DHT22;26089;43.538;5.250;2023-05-13T03:26:08;11.10;99.90
16289;DHT22;26089;43.538;5.250;2023-05-13T03:28:35;11.10;99.90
16289;DHT22;26089;43.538;5.250;2023-05-13T03:31:02;11.10;99.90
16289;DHT22;26089;43.538;5.250;2023-05-13T03:33:29;11.10;99.90
16289;DHT22;26089;43.538;5.250;2023-05-13T03:35:56;11.10;99.90
16289;DHT22;26089;43.538;5.250;2023-05-13T03:38:22;11.10;99.90
16289;DHT22;26089;43.538;5.250;2023-05-13T03:40:51;11.10;99.90
16289;DHT22;26089;43.538;5.250;2023-05-13T03:43:18;11.20;99.90
16289;DHT22;26089;43.538;5.250;2023-05-13T03:45:45;11.10;99.90
16289;DHT22;26089;43.538;5.250;2023-05-13T03:48:14;11.10;99.90
16289;DHT22;26089;43.538;5.250;2023-05-13T03:50:41;10.60;99.90
16289;DHT22;26089;43.538;5.250;2023-05-13T03:53:09;11.10;99.90
16289;DHT22;26089;43.538;5.250;2023-05-13T03:55:36;11.10;99.90
16289;DHT22;26089;43.538;5.250;2023-05-13T03:58:12;11.20;99.90
16289;DHT22;26089;43.538;5.250;2023-05-13T04:00:40;11.20;99.90
16289;DHT22;26089;43.538;5.250;2023-05-13T04:03:07;11.20;99.90
16289;DHT22;26089;43.538;5.250;2023-05-13T04:05:35;11.20;99.90
16289;DHT22;26089;43.538;5.250;2023-05-13T04:08:01;11.20;99.90
16289;DHT22;26089;43.538;5.250;2023-05-13T04:10:28;11.20;99.90
16289;DHT22;26089;43.538;5.250;2023-05-13T04:12:55;11.20;99.90
16289;DHT22;26089;43.538;5.250;2023-05-13T04:15:24;11.10;99.90
16289;DHT22;26089;43.538;5.250;2023-05-13T04:17:51;11.10;99.90
16289;DHT22;26089;43.538;5.250;2023-05-13T04:20:18;11.10;99.90
16289;DHT22;26089;43.538;5.250;2023-05-13T04:22:46;11.00;99.90
16289;DHT22;26089;43.538;5.250;2023-05-13T04:25:13;11.00;99.90
16289;DHT22;26089;43.538;5.250;2023-05-13T04:27:40;11.00;99.90
16289;DHT22;26089;43.538;5.250;2023-05-13T04:30:08;11.00;99.90
16289;DHT22;26089;43.538;5.250;2023-05-13T04:32:36;11.00;99.90
16289;DHT22;26089;43.538;5.250;2023-05-13T04:35:05;11.50;99.90
16289;DHT22;26089;43.538;5.250;2023-05-13T04:37:32;10.90;99.90
16289;DHT22;26089;43.538;5.250;2023-05-13T04:39:59;10.90;99.90
16289;DHT22;26089;43.538;5.250;2023-05-13T04:42:26;10.90;99.90
16289;DHT22;26089;43.538;5.250;2023-05-13T04:44:54;10.90;99.90
16289;DHT22;26089;43.538;5.250;2023-05-13T04:47:21;10.90;99.90
16289;DHT22;26089;43.538;5.250;2023-05-13T04:49:49;11.10;99.90
16289;DHT22;26089;43.538;5.250;2023-05-13T04:52:16;11.00;99.90
16289;DHT22;26089;43.538;5.250;2023-05-13T04:54:44;11.00;99.90
16289;DHT22;26089;43.538;5.250;2023-05-13T04:57:11;11.10;99.90
16289;DHT22;26089;43.538;5.250;2023-05-13T04:59:38;11.10;99.90
16289;DHT22;26089;43.538;5.250;2023-05-13T05:02:05;11.10;99.90
16289;DHT22;26089;43.538;5.250;2023-05-13T05:04:32;11.10;99.90
16289;DHT22;26089;43.538;5.250;2023-05-13T05:07:00;11.20;99.90
16289;DHT22;26089;43.538;5.250;2023-05-13T05:09:27;11.40;99.90
16289;DHT22;26089;43.538;5.250;2023-05-13T05:11:54;11.30;99.90
16289;DHT22;26089;43.538;5.250;2023-05-13T05:14:21;11.30;99.90
16289;DHT22;26089;43.538;5.250;2023-05-13T05:16:48;11.40;99.90
16289;DHT22;26089;43.538;5.250;2023-05-13T05:19:15;11.50;99.90
16289;DHT22;26089;43.538;5.250;2023-05-13T05:21:42;13.80;99.90
16289;DHT22;26089;43.538;5.250;2023-05-13T05:24:10;11.50;99.90
16289;DHT22;26089;43.538;5.250;2023-05-13T05:26:37;11.50;99.90
16289;DHT22;26089;43.538;5.250;2023-05-13T05:29:04;11.60;99.90
16289;DHT22;26089;43.538;5.250;2023-05-13T05:31:31;11.70;99.90
16289;DHT22;26089;43.538;5.250;2023-05-13T05:33:58;11.80;99.90
16289;DHT22;26089;43.538;5.250;2023-05-13T05:36:27;11.90;99.90
16289;DHT22;26089;43.538;5.250;2023-05-13T05:38:54;11.80;99.90
16289;DHT22;26089;43.538;5.250;2023-05-13T05:41:22;12.10;99.90
16289;DHT22;26089;43.538;5.250;2023-05-13T05:43:49;12.10;99.90
16289;DHT22;26089;43.538;5.250;2023-05-13T05:46:16;12.10;99.90
16289;DHT22;26089;43.538;5.250;2023-05-13T05:48:43;12.20;99.90
16289;DHT22;26089;43.538;5.250;2023-05-13T05:51:10;12.30;99.90
16289;DHT22;26089;43.538;5.250;2023-05-13T05:53:37;12.40;99.90
16289;DHT22;26089;43.538;5.250;2023-05-13T05:56:05;12.50;99.90
16289;DHT22;26089;43.538;5.250;2023-05-13T05:58:34;12.60;99.90
16289;DHT22;26089;43.538;5.250;2023-05-13T06:01:01;12.80;99.90
16289;DHT22;26089;43.538;5.250;2023-05-13T06:03:28;12.90;99.90
16289;DHT22;26089;43.538;5.250;2023-05-13T06:05:55;13.10;99.90
16289;DHT22;26089;43.538;5.250;2023-05-13T06:08:22;13.20;99.90
16289;DHT22;26089;43.538;5.250;2023-05-13T06:10:54;13.30;99.90
16289;DHT22;26089;43.538;5.250;2023-05-13T06:13:21;13.60;99.90
16289;DHT22;26089;43.538;5.250;2023-05-13T06:15:50;13.70;99.90
16289;DHT22;26089;43.538;5.250;2023-05-13T06:18:17;14.00;99.90
16289;DHT22;26089;43.538;5.250;2023-05-13T06:20:44;14.70;99.90
16289;DHT22;26089;43.538;5.250;2023-05-13T06:23:11;16.00;99.90
16289;DHT22;26089;43.538;5.250;2023-05-13T06:25:39;17.10;99.90
16289;DHT22;26089;43.538;5.250;2023-05-13T06:28:06;18.10;99.90
16289;DHT22;26089;43.538;5.250;2023-05-13T06:30:34;18.70;99.90
16289;DHT22;26089;43.538;5.250;2023-05-13T06:33:03;19.20;99.90
16289;DHT22;26089;43.538;5.250;2023-05-13T06:35:30;19.30;99.90
16289;DHT22;26089;43.538;5.250;2023-05-13T06:37:57;19.60;99.90
16289;DHT22;26089;43.538;5.250;2023-05-13T06:40:24;20.00;99.90
16289;DHT22;26089;43.538;5.250;2023-05-13T06:42:51;20.20;99.90
16289;DHT22;26089;43.538;5.250;2023-05-13T06:45:18;20.10;99.90
16289;DHT22;26089;43.538;5.250;2023-05-13T06:47:48;20.40;99.90
16289;DHT22;26089;43.538;5.250;2023-05-13T06:50:17;20.60;99.90
16289;DHT22;26089;43.538;5.250;2023-05-13T06:52:44;20.50;99.90
16289;DHT22;26089;43.538;5.250;2023-05-13T06:55:11;20.60;99.90
16289;DHT22;26089;43.538;5.250;2023-05-13T06:57:38;21.00;99.90
16289;DHT22;26089;43.538;5.250;2023-05-13T07:00:06;21.10;99.90
16289;DHT22;26089;43.538;5.250;2023-05-13T07:02:33;21.20;99.90
16289;DHT22;26089;43.538;5.250;2023-05-13T07:05:00;21.40;99.90
16289;DHT22;26089;43.538;5.250;2023-05-13T07:07:28;21.30;99.90
16289;DHT22;26089;43.538;5.250;2023-05-13T07:09:55;21.60;99.90
16289;DHT22;26089;43.538;5.250;2023-05-13T07:12:22;21.20;99.90
16289;DHT22;26089;43.538;5.250;2023-05-13T07:14:49;20.50;99.90
16289;DHT22;26089;43.538;5.250;2023-05-13T07:17:16;20.60;99.90
16289;DHT22;26089;43.538;5.250;2023-05-13T07:19:43;21.10;99.90
16289;DHT22;26089;43.538;5.250;2023-05-13T07:22:10;20.80;99.90
16289;DHT22;26089;43.538;5.250;2023-05-13T07:24:39;20.30;99.90
16289;DHT22;26089;43.538;5.250;2023-05-13T07:27:06;19.40;99.90
16289;DHT22;26089;43.538;5.250;2023-05-13T07:29:33;18.90;99.90
16289;DHT22;26089;43.538;5.250;2023-05-13T07:32:03;18.40;99.90
16289;DHT22;26089;43.538;5.250;2023-05-13T07:34:30;18.10;99.90
16289;DHT22;26089;43.538;5.250;2023-05-13T07:36:58;17.70;99.90
16289;DHT22;26089;43.538;5.250;2023-05-13T07:39:25;17.60;99.90
16289;DHT22;26089;43.538;5.250;2023-05-13T07:41:53;17.40;99.90
16289;DHT22;26089;43.538;5.250;2023-05-13T07:44:21;17.40;99.90
16289;DHT22;26089;43.538;5.250;2023-05-13T07:46:48;17.70;99.90
16289;DHT22;26089;43.538;5.250;2023-05-13T07:49:17;18.90;99.90
16289;DHT22;26089;43.538;5.250;2023-05-13T07:51:45;19.60;99.90
16289;DHT22;26089;43.538;5.250;2023-05-13T07:54:12;19.70;99.90
16289;DHT22;26089;43.538;5.250;2023-05-13T07:56:38;20.10;99.90
16289;DHT22;26089;43.538;5.250;2023-05-13T07:59:10;20.30;99.90
16289;DHT22;26089;43.538;5.250;2023-05-13T08:01:37;20.50;99.90
16289;DHT22;26089;43.538;5.250;2023-05-13T08:04:04;20.80;99.90
16289;DHT22;26089;43.538;5.250;2023-05-13T08:06:31;21.00;99.90
16289;DHT22;26089;43.538;5.250;2023-05-13T08:08:58;20.90;99.90
16289;DHT22;26089;43.538;5.250;2023-05-13T08:11:26;20.90;99.90
16289;DHT22;26089;43.538;5.250;2023-05-13T08:13:53;21.10;99.90
16289;DHT22;26089;43.538;5.250;2023-05-13T08:16:21;21.10;99.90
16289;DHT22;26089;43.538;5.250;2023-05-13T08:18:48;21.40;99.90
16289;DHT22;26089;43.538;5.250;2023-05-13T08:21:15;21.80;99.90
16289;DHT22;26089;43.538;5.250;2023-05-13T08:23:42;22.00;99.90
16289;DHT22;26089;43.538;5.250;2023-05-13T08:26:09;22.40;99.90
16289;DHT22;26089;43.538;5.250;2023-05-13T08:28:36;22.60;99.90
16289;DHT22;26089;43.538;5.250;2023-05-13T08:31:03;22.50;99.90
16289;DHT22;26089;43.538;5.250;2023-05-13T08:33:32;22.70;99.90
16289;DHT22;26089;43.538;5.250;2023-05-13T08:35:59;22.50;99.90
16289;DHT22;26089;43.538;5.250;2023-05-13T08:38:26;22.50;99.90
16289;DHT22;26089;43.538;5.250;2023-05-13T08:40:53;22.70;99.90
16289;DHT22;26089;43.538;5.250;2023-05-13T08:43:23;23.00;99.90
16289;DHT22;26089;43.538;5.250;2023-05-13T08:45:50;23.20;99.90
16289;DHT22;26089;43.538;5.250;2023-05-13T08:48:19;23.10;99.90
16289;DHT22;26089;43.538;5.250;2023-05-13T08:50:48;23.30;99.90
16289;DHT22;26089;43.538;5.250;2023-05-13T08:53:16;23.10;99.90
16289;DHT22;26089;43.538;5.250;2023-05-13T08:55:44;23.00;99.90
16289;DHT22;26089;43.538;5.250;2023-05-13T08:58:11;23.40;99.90
16289;DHT22;26089;43.538;5.250;2023-05-13T09:00:38;23.30;99.90
16289;DHT22;26089;43.538;5.250;2023-05-13T09:03:05;23.60;99.90
16289;DHT22;26089;43.538;5.250;2023-05-13T09:05:33;23.80;99.90
16289;DHT22;26089;43.538;5.250;2023-05-13T09:08:06;24.00;99.90
16289;DHT22;26089;43.538;5.250;2023-05-13T09:10:34;24.10;99.90
16289;DHT22;26089;43.538;5.250;2023-05-13T09:13:01;24.50;99.90
16289;DHT22;26089;43.538;5.250;2023-05-13T09:15:29;24.50;99.90
16289;DHT22;26089;43.538;5.250;2023-05-13T09:18:00;24.20;99.90
16289;DHT22;26089;43.538;5.250;2023-05-13T09:20:27;23.60;99.90
16289;DHT22;26089;43.538;5.250;2023-05-13T09:22:57;23.30;99.90
16289;DHT22;26089;43.538;5.250;2023-05-13T09:25:27;23.40;99.90
16289;DHT22;26089;43.538;5.250;2023-05-13T09:27:55;23.90;99.90
16289;DHT22;26089;43.538;5.250;2023-05-13T09:30:23;24.70;99.90
16289;DHT22;26089;43.538;5.250;2023-05-13T09:33:07;25.20;99.90
16289;DHT22;26089;43.538;5.250;2023-05-13T09:35:36;25.80;99.90
16289;DHT22;26089;43.538;5.250;2023-05-13T09:38:12;25.90;99.90
16289;DHT22;26089;43.538;5.250;2023-05-13T09:40:41;25.80;99.90
16289;DHT22;26089;43.538;5.250;2023-05-13T09:43:14;25.30;99.90
16289;DHT22;26089;43.538;5.250;2023-05-13T09:45:41;23.90;99.90
16289;DHT22;26089;43.538;5.250;2023-05-13T09:48:08;22.40;99.90
16289;DHT22;26089;43.538;5.250;2023-05-13T09:50:45;21.00;99.90
16289;DHT22;26089;43.538;5.250;2023-05-13T09:53:12;20.90;99.90
16289;DHT22;26089;43.538;5.250;2023-05-13T09:55:45;20.60;99.90
16289;DHT22;26089;43.538;5.250;2023-05-13T09:58:12;20.30;99.90
16289;DHT22;26089;43.538;5.250;2023-05-13T10:00:39;20.10;99.90
16289;DHT22;26089;43.538;5.250;2023-05-13T10:03:07;20.40;99.90
16289;DHT22;26089;43.538;5.250;2023-05-13T10:05:35;21.00;99.90
16289;DHT22;26089;43.538;5.250;2023-05-13T10:08:02;20.60;99.90
16289;DHT22;26089;43.538;5.250;2023-05-13T10:10:31;20.50;99.90
16289;DHT22;26089;43.538;5.250;2023-05-13T10:13:04;20.30;99.90
16289;DHT22;26089;43.538;5.250;2023-05-13T10:15:31;20.00;99.90
16289;DHT22;26089;43.538;5.250;2023-05-13T10:17:59;20.00;99.90
16289;DHT22;26089;43.538;5.250;2023-05-13T10:20:26;20.00;99.90
16289;DHT22;26089;43.538;5.250;2023-05-13T10:22:54;20.10;99.90
16289;DHT22;26089;43.538;5.250;2023-05-13T10:25:21;20.10;99.90
16289;DHT22;26089;43.538;5.250;2023-05-13T10:27:50;20.30;99.90
16289;DHT22;26089;43.538;5.250;2023-05-13T10:30:20;20.30;99.90
16289;DHT22;26089;43.538;5.250;2023-05-13T10:32:51;20.90;99.90
16289;DHT22;26089;43.538;5.250;2023-05-13T10:35:19;22.30;99.90
16289;DHT22;26089;43.538;5.250;2023-05-13T10:37:59;23.10;99.90
16289;DHT22;26089;43.538;5.250;2023-05-13T10:41:01;24.50;99.90
16289;DHT22;26089;43.538;5.250;2023-05-13T10:43:33;25.60;99.90
16289;DHT22;26089;43.538;5.250;2023-05-13T10:46:04;26.10;99.90
16289;DHT22;26089;43.538;5.250;2023-05-13T10:48:38;26.10;99.90
16289;DHT22;26089;43.538;5.250;2023-05-13T10:51:06;25.80;99.90
16289;DHT22;26089;43.538;5.250;2023-05-13T10:53:36;26.50;99.90
16289;DHT22;26089;43.538;5.250;2023-05-13T10:56:03;26.90;99.90
16289;DHT22;26089;43.538;5.250;2023-05-13T10:58:33;26.90;99.90
16289;DHT22;26089;43.538;5.250;2023-05-13T11:01:19;25.20;99.90
16289;DHT22;26089;43.538;5.250;2023-05-13T11:03:52;24.20;99.90
16289;DHT22;26089;43.538;5.250;2023-05-13T11:06:20;22.90;99.90
16289;DHT22;26089;43.538;5.250;2023-05-13T11:08:49;21.90;99.90
16289;DHT22;26089;43.538;5.250;2023-05-13T11:11:26;21.30;99.90
16289;DHT22;26089;43.538;5.250;2023-05-13T11:14:01;20.80;99.90
16289;DHT22;26089;43.538;5.250;2023-05-13T11:16:30;20.80;99.90
16289;DHT22;26089;43.538;5.250;2023-05-13T11:18:58;20.30;99.90
16289;DHT22;26089;43.538;5.250;2023-05-13T11:21:30;20.10;99.90
16289;DHT22;26089;43.538;5.250;2023-05-13T11:24:00;19.90;99.90
16289;DHT22;26089;43.538;5.250;2023-05-13T11:26:43;19.30;99.90
16289;DHT22;26089;43.538;5.250;2023-05-13T11:29:11;19.00;99.90
16289;DHT22;26089;43.538;5.250;2023-05-13T11:31:45;18.80;99.90
16289;DHT22;26089;43.538;5.250;2023-05-13T11:34:13;18.40;99.90
16289;DHT22;26089;43.538;5.250;2023-05-13T11:36:43;18.00;99.90
16289;DHT22;26089;43.538;5.250;2023-05-13T11:39:12;17.70;99.90
16289;DHT22;26089;43.538;5.250;2023-05-13T11:41:41;17.40;99.90
16289;DHT22;26089;43.538;5.250;2023-05-13T11:44:10;16.90;99.90
16289;DHT22;26089;43.538;5.250;2023-05-13T11:46:37;16.80;99.90
16289;DHT22;26089;43.538;5.250;2023-05-13T11:49:06;16.90;99.90
16289;DHT22;26089;43.538;5.250;2023-05-13T11:51:33;16.90;99.90
16289;DHT22;26089;43.538;5.250;2023-05-13T11:54:01;16.70;99.90
16289;DHT22;26089;43.538;5.250;2023-05-13T11:56:28;16.80;99.90
16289;DHT22;26089;43.538;5.250;2023-05-13T11:59:11;16.90;99.90
16289;DHT22;26089;43.538;5.250;2023-05-13T12:01:40;16.90;99.90
16289;DHT22;26089;43.538;5.250;2023-05-13T12:04:08;17.00;99.90
16289;DHT22;26089;43.538;5.250;2023-05-13T12:06:42;17.30;99.90
16289;DHT22;26089;43.538;5.250;2023-05-13T12:09:10;17.70;99.90
16289;DHT22;26089;43.538;5.250;2023-05-13T12:11:39;17.80;99.90
16289;DHT22;26089;43.538;5.250;2023-05-13T12:14:07;17.60;99.90
16289;DHT22;26089;43.538;5.250;2023-05-13T12:16:34;17.70;99.90
16289;DHT22;26089;43.538;5.250;2023-05-13T12:19:03;17.80;99.90
16289;DHT22;26089;43.538;5.250;2023-05-13T12:21:33;18.50;99.90
16289;DHT22;26089;43.538;5.250;2023-05-13T12:24:00;18.60;99.90
16289;DHT22;26089;43.538;5.250;2023-05-13T12:26:27;18.40;99.90
16289;DHT22;26089;43.538;5.250;2023-05-13T12:28:57;18.20;99.90
16289;DHT22;26089;43.538;5.250;2023-05-13T12:31:25;18.20;99.90
16289;DHT22;26089;43.538;5.250;2023-05-13T12:33:53;18.30;99.90
16289;DHT22;26089;43.538;5.250;2023-05-13T12:36:21;18.60;99.90
16289;DHT22;26089;43.538;5.250;2023-05-13T12:38:55;18.50;99.90
16289;DHT22;26089;43.538;5.250;2023-05-13T12:41:24;19.40;99.90
16289;DHT22;26089;43.538;5.250;2023-05-13T12:43:56;19.90;99.90
16289;DHT22;26089;43.538;5.250;2023-05-13T12:46:23;20.80;99.90
16289;DHT22;26089;43.538;5.250;2023-05-13T12:48:53;21.30;99.90
16289;DHT22;26089;43.538;5.250;2023-05-13T12:51:20;21.30;99.90
16289;DHT22;26089;43.538;5.250;2023-05-13T12:53:47;21.40;99.90
16289;DHT22;26089;43.538;5.250;2023-05-13T12:56:15;22.00;99.90
16289;DHT22;26089;43.538;5.250;2023-05-13T12:58:42;22.50;99.90
16289;DHT22;26089;43.538;5.250;2023-05-13T13:01:09;22.40;99.90
16289;DHT22;26089;43.538;5.250;2023-05-13T13:03:36;22.70;99.90
16289;DHT22;26089;43.538;5.250;2023-05-13T13:06:04;22.60;99.90
16289;DHT22;26089;43.538;5.250;2023-05-13T13:08:31;22.70;99.90
16289;DHT22;26089;43.538;5.250;2023-05-13T13:10:58;22.70;99.90
16289;DHT22;26089;43.538;5.250;2023-05-13T13:13:27;22.20;99.90
16289;DHT22;26089;43.538;5.250;2023-05-13T13:15:54;22.50;99.90
16289;DHT22;26089;43.538;5.250;2023-05-13T13:18:21;22.50;99.90
16289;DHT22;26089;43.538;5.250;2023-05-13T13:20:49;22.40;99.90
16289;DHT22;26089;43.538;5.250;2023-05-13T13:23:16;22.70;99.90
16289;DHT22;26089;43.538;5.250;2023-05-13T13:25:43;22.90;99.90
16289;DHT22;26089;43.538;5.250;2023-05-13T13:28:10;23.10;99.90
16289;DHT22;26089;43.538;5.250;2023-05-13T13:30:38;23.00;99.90
16289;DHT22;26089;43.538;5.250;2023-05-13T13:33:11;23.30;99.90
16289;DHT22;26089;43.538;5.250;2023-05-13T13:35:38;23.60;99.90
16289;DHT22;26089;43.538;5.250;2023-05-13T13:38:05;23.70;99.90
16289;DHT22;26089;43.538;5.250;2023-05-13T13:40:33;23.80;99.90
16289;DHT22;26089;43.538;5.250;2023-05-13T13:43:00;23.30;99.90
16289;DHT22;26089;43.538;5.250;2023-05-13T13:45:27;23.40;99.90
16289;DHT22;26089;43.538;5.250;2023-05-13T13:47:56;23.70;99.90
16289;DHT22;26089;43.538;5.250;2023-05-13T13:50:23;23.00;99.90
16289;DHT22;26089;43.538;5.250;2023-05-13T13:52:50;22.30;99.90
16289;DHT22;26089;43.538;5.250;2023-05-13T13:55:18;21.70;99.90
16289;DHT22;26089;43.538;5.250;2023-05-13T13:57:45;21.20;99.90
16289;DHT22;26089;43.538;5.250;2023-05-13T14:00:13;20.80;99.90
16289;DHT22;26089;43.538;5.250;2023-05-13T14:02:40;20.50;99.90
16289;DHT22;26089;43.538;5.250;2023-05-13T14:05:10;20.20;99.90
16289;DHT22;26089;43.538;5.250;2023-05-13T14:07:37;19.90;99.90
16289;DHT22;26089;43.538;5.250;2023-05-13T14:10:05;19.80;99.90
16289;DHT22;26089;43.538;5.250;2023-05-13T14:12:32;19.50;99.90
16289;DHT22;26089;43.538;5.250;2023-05-13T14:15:00;19.30;99.90
16289;DHT22;26089;43.538;5.250;2023-05-13T14:17:27;19.10;99.90
16289;DHT22;26089;43.538;5.250;2023-05-13T14:19:54;18.90;99.90
16289;DHT22;26089;43.538;5.250;2023-05-13T14:22:23;18.80;99.90
16289;DHT22;26089;43.538;5.250;2023-05-13T14:24:50;18.70;99.90
16289;DHT22;26089;43.538;5.250;2023-05-13T14:27:18;18.60;99.90
16289;DHT22;26089;43.538;5.250;2023-05-13T14:29:46;18.60;99.90
16289;DHT22;26089;43.538;5.250;2023-05-13T14:32:13;18.60;99.90
16289;DHT22;26089;43.538;5.250;2023-05-13T14:34:40;18.60;99.90
16289;DHT22;26089;43.538;5.250;2023-05-13T14:37:07;18.60;99.90
16289;DHT22;26089;43.538;5.250;2023-05-13T14:39:36;18.50;99.90
16289;DHT22;26089;43.538;5.250;2023-05-13T14:42:03;18.40;99.90
16289;DHT22;26089;43.538;5.250;2023-05-13T14:44:30;18.40;99.90
16289;DHT22;26089;43.538;5.250;2023-05-13T14:46:57;18.30;99.90
16289;DHT22;26089;43.538;5.250;2023-05-13T14:49:24;18.10;99.90
16289;DHT22;26089;43.538;5.250;2023-05-13T14:51:51;17.90;99.90
16289;DHT22;26089;43.538;5.250;2023-05-13T14:54:18;17.70;99.90
16289;DHT22;26089;43.538;5.250;2023-05-13T14:56:48;17.40;99.90
16289;DHT22;26089;43.538;5.250;2023-05-13T14:59:15;17.20;99.90
16289;DHT22;26089;43.538;5.250;2023-05-13T15:01:42;17.00;99.90
16289;DHT22;26089;43.538;5.250;2023-05-13T15:04:09;17.00;99.90
16289;DHT22;26089;43.538;5.250;2023-05-13T15:06:36;16.90;99.90
16289;DHT22;26089;43.538;5.250;2023-05-13T15:09:03;16.90;99.90
16289;DHT22;26089;43.538;5.250;2023-05-13T15:11:31;16.90;99.90
16289;DHT22;26089;43.538;5.250;2023-05-13T15:14:00;16.90;99.90
16289;DHT22;26089;43.538;5.250;2023-05-13T15:16:27;16.90;99.90
16289;DHT22;26089;43.538;5.250;2023-05-13T15:18:54;16.80;99.90
16289;DHT22;26089;43.538;5.250;2023-05-13T15:21:21;16.80;99.90
16289;DHT22;26089;43.538;5.250;2023-05-13T15:23:48;16.80;99.90
16289;DHT22;26089;43.538;5.250;2023-05-13T15:26:15;16.80;99.90
16289;DHT22;26089;43.538;5.250;2023-05-13T15:28:42;16.70;99.90
16289;DHT22;26089;43.538;5.250;2023-05-13T15:31:10;16.70;99.90
16289;DHT22;26089;43.538;5.250;2023-05-13T15:33:37;16.60;99.90
16289;DHT22;26089;43.538;5.250;2023-05-13T15:36:05;16.50;99.90